createdAt,value
2018-02-25T00:00:03.942Z,74.35
2018-02-25T00:02:32.238Z,74.46
2018-02-25T00:05:00.512Z,74.78
2018-02-25T00:07:29.180Z,74.88
2018-02-25T00:09:57.458Z,75.48
2018-02-25T00:12:25.729Z,75.60
2018-02-25T00:14:54.317Z,75.72
2018-02-25T00:17:22.617Z,75.10
2018-02-25T00:19:50.894Z,75.40
2018-02-25T00:22:35.620Z,75.84
2018-02-25T00:25:03.900Z,75.87
2018-02-25T00:27:32.298Z,76.04
2018-02-25T00:30:00.590Z,76.09
2018-02-25T00:32:28.874Z,76.45
2018-02-25T00:34:57.176Z,76.46
2018-02-25T00:37:26.238Z,76.09
2018-02-25T00:39:54.517Z,76.43
2018-02-25T00:42:23.768Z,76.46
2018-02-25T00:44:52.805Z,76.25
2018-02-25T00:47:21.089Z,76.37
2018-02-25T00:49:50.457Z,76.30
2018-02-25T00:52:18.729Z,76.34
2018-02-25T00:54:47.012Z,76.69
2018-02-25T00:57:15.344Z,76.36
2018-02-25T00:59:43.632Z,76.22
2018-02-25T01:02:11.912Z,76.58
2018-02-25T01:04:40.986Z,76.93
2018-02-25T01:07:09.272Z,76.34
2018-02-25T01:09:37.560Z,76.58
2018-02-25T01:12:05.868Z,76.69
2018-02-25T01:14:34.134Z,76.88
2018-02-25T01:17:03.196Z,77.23
2018-02-25T01:19:31.635Z,77.14
2018-02-25T01:21:59.906Z,77.10
2018-02-25T01:24:28.185Z,76.81
2018-02-25T01:26:56.781Z,77.09
2018-02-25T01:29:25.082Z,77.04
2018-02-25T01:31:53.349Z,77.50
2018-02-25T01:34:22.418Z,77.34
2018-02-25T01:36:50.982Z,77.53
2018-02-25T01:39:20.036Z,77.76
2018-02-25T01:41:48.341Z,77.68
2018-02-25T01:44:16.660Z,77.77
2018-02-25T01:46:44.964Z,77.28
2018-02-25T01:49:13.657Z,77.54
2018-02-25T01:51:41.925Z,78.34
2018-02-25T01:54:10.208Z,78.06
2018-02-25T01:56:38.505Z,77.80
2018-02-25T01:59:07.078Z,77.92
2018-02-25T02:01:36.088Z,77.96
2018-02-25T02:04:04.352Z,77.99
2018-02-25T02:06:32.659Z,78.12
2018-02-25T02:09:01.699Z,78.22
2018-02-25T02:11:29.986Z,78.50
2018-02-25T02:13:58.565Z,78.37
2018-02-25T02:16:26.839Z,78.10
2018-02-25T02:18:55.123Z,78.36
2018-02-25T02:21:23.429Z,78.48
2018-02-25T02:23:52.485Z,78.40
2018-02-25T02:26:20.758Z,78.39
2018-02-25T02:28:49.044Z,78.27
2018-02-25T02:31:17.343Z,79.22
2018-02-25T02:33:45.616Z,79.23
2018-02-25T02:36:13.947Z,79.12
2018-02-25T02:38:43.013Z,78.88
2018-02-25T02:41:11.312Z,78.79
2018-02-25T02:43:40.377Z,79.27
2018-02-25T02:46:08.686Z,79.08
2018-02-25T02:48:37.740Z,79.31
2018-02-25T02:51:07.457Z,79.38
2018-02-25T02:53:37.048Z,79.23
2018-02-25T02:56:05.326Z,79.08
2018-02-25T02:58:33.615Z,79.04
2018-02-25T03:01:01.912Z,78.79
2018-02-25T03:03:31.008Z,79.05
2018-02-25T03:05:59.319Z,79.06
2018-02-25T03:08:28.387Z,79.00
2018-02-25T03:10:56.672Z,78.68
2018-02-25T03:13:24.957Z,78.68
2018-02-25T03:15:54.333Z,78.82
2018-02-25T03:18:22.621Z,78.41
2018-02-25T03:20:50.920Z,78.46
2018-02-25T03:23:19.998Z,78.71
2018-02-25T03:25:48.288Z,78.94
2018-02-25T03:28:16.613Z,78.73
2018-02-25T03:30:44.910Z,79.02
2018-02-25T03:33:13.185Z,78.76
2018-02-25T03:35:41.466Z,78.57
2018-02-25T03:38:09.768Z,78.48
2018-02-25T03:40:38.882Z,78.73
2018-02-25T03:43:07.960Z,78.75
2018-02-25T03:45:37.029Z,79.12
2018-02-25T03:48:05.320Z,79.37
2018-02-25T03:50:34.376Z,78.93
2018-02-25T03:53:02.654Z,79.05
2018-02-25T03:55:30.940Z,79.42
2018-02-25T03:57:59.224Z,79.22
2018-02-25T04:00:27.498Z,79.65
2018-02-25T04:02:55.815Z,79.23
2018-02-25T04:05:24.092Z,79.64
2018-02-25T04:07:52.416Z,79.50
2018-02-25T04:10:20.758Z,79.21
2018-02-25T04:12:49.056Z,79.84
2018-02-25T04:15:18.091Z,79.87
2018-02-25T04:17:46.424Z,79.84
2018-02-25T04:20:15.492Z,79.52
2018-02-25T04:22:43.834Z,79.68
2018-02-25T04:25:12.549Z,79.22
2018-02-25T04:27:42.440Z,79.71
2018-02-25T04:30:10.703Z,79.32
2018-02-25T04:32:39.394Z,78.30
2018-02-25T04:35:07.691Z,77.52
2018-02-25T04:37:35.980Z,77.15
2018-02-25T04:40:04.325Z,78.11
2018-02-25T04:42:33.289Z,79.79
2018-02-25T04:45:01.590Z,80.70
2018-02-25T04:47:29.887Z,80.92
2018-02-25T04:49:58.220Z,80.81
2018-02-25T04:52:27.278Z,81.01
2018-02-25T04:54:56.188Z,81.40
2018-02-25T04:57:24.494Z,81.36
2018-02-25T04:59:52.777Z,81.15
2018-02-25T05:02:21.846Z,81.13
2018-02-25T05:04:50.119Z,80.98
2018-02-25T05:07:18.463Z,80.73
2018-02-25T05:09:46.766Z,80.81
2018-02-25T05:12:15.754Z,81.34
2018-02-25T05:14:44.025Z,81.04
2018-02-25T05:17:12.333Z,80.75
2018-02-25T05:19:40.652Z,80.56
2018-02-25T05:22:08.928Z,80.30
2018-02-25T05:24:37.239Z,80.04
2018-02-25T05:27:05.660Z,79.95
2018-02-25T05:29:34.291Z,79.92
2018-02-25T05:32:02.582Z,79.81
2018-02-25T05:34:30.896Z,80.09
2018-02-25T05:36:59.180Z,80.10
2018-02-25T05:39:27.457Z,80.33
2018-02-25T05:41:55.779Z,80.10
2018-02-25T05:44:24.065Z,80.22
2018-02-25T05:46:53.148Z,79.92
2018-02-25T05:49:23.079Z,79.83
2018-02-25T05:51:51.412Z,79.78
2018-02-25T05:54:20.826Z,79.70
2018-02-25T05:56:50.259Z,79.77
2018-02-25T05:59:19.320Z,79.67
2018-02-25T06:01:48.380Z,79.63
2018-02-25T06:04:17.664Z,79.84
2018-02-25T06:06:45.960Z,79.79
2018-02-25T06:09:14.232Z,79.15
2018-02-25T06:11:42.900Z,79.17
2018-02-25T06:14:11.170Z,79.58
2018-02-25T06:16:39.449Z,79.71
2018-02-25T06:19:07.744Z,80.08
2018-02-25T06:21:36.029Z,79.93
2018-02-25T06:24:04.305Z,79.40
2018-02-25T06:26:32.692Z,79.08
2018-02-25T06:29:00.996Z,79.24
2018-02-25T06:31:29.272Z,79.41
2018-02-25T06:33:57.817Z,79.12
2018-02-25T06:36:27.452Z,79.11
2018-02-25T06:38:55.737Z,79.16
2018-02-25T06:41:24.039Z,79.50
2018-02-25T06:43:53.071Z,79.25
2018-02-25T06:46:21.377Z,79.16
2018-02-25T06:48:49.756Z,79.38
2018-02-25T06:51:18.047Z,78.95
2018-02-25T06:53:46.961Z,78.75
2018-02-25T06:56:16.106Z,78.02
2018-02-25T06:58:44.399Z,78.47
2018-02-25T07:01:12.713Z,80.16
2018-02-25T07:03:41.803Z,80.16
2018-02-25T07:06:10.744Z,82.02
2018-02-25T07:08:39.636Z,80.31
2018-02-25T07:11:09.376Z,78.83
2018-02-25T07:13:38.264Z,78.99
2018-02-25T07:16:06.532Z,78.95
2018-02-25T07:18:34.816Z,78.38
2018-02-25T07:21:03.495Z,77.76
2018-02-25T07:23:31.796Z,77.48
2018-02-25T07:26:00.179Z,77.71
2018-02-25T07:28:28.532Z,77.27
2018-02-25T07:30:57.003Z,77.51
2018-02-25T07:33:25.272Z,76.75
2018-02-25T07:35:53.551Z,75.69
2018-02-25T07:38:22.348Z,76.65
2018-02-25T07:40:50.621Z,75.92
2018-02-25T07:43:20.605Z,75.60
2018-02-25T07:45:49.680Z,73.69
2018-02-25T07:48:18.845Z,71.73
2018-02-25T07:50:47.112Z,70.91
2018-02-25T07:53:16.010Z,71.58
2018-02-25T07:55:44.296Z,72.97
2018-02-25T07:58:12.596Z,71.30
2018-02-25T08:00:40.950Z,72.07
2018-02-25T08:03:09.230Z,74.12
2018-02-25T08:05:38.571Z,73.44
2018-02-25T08:08:07.719Z,73.05
2018-02-25T08:10:36.423Z,74.67
2018-02-25T08:13:05.412Z,74.95
2018-02-25T08:15:33.739Z,75.76
2018-02-25T08:18:02.781Z,76.77
2018-02-25T08:20:31.087Z,75.51
2018-02-25T08:22:59.389Z,75.54
2018-02-25T08:25:28.427Z,76.97
2018-02-25T08:27:57.965Z,75.89
2018-02-25T08:30:26.271Z,76.76
2018-02-25T08:32:55.988Z,76.05
2018-02-25T08:35:25.075Z,76.86
2018-02-25T08:37:54.053Z,76.53
2018-02-25T08:40:22.534Z,78.11
2018-02-25T08:42:51.431Z,75.98
2018-02-25T08:45:20.900Z,78.07
2018-02-25T08:47:49.171Z,77.87
2018-02-25T08:50:17.459Z,77.93
2018-02-25T08:52:46.250Z,78.42
2018-02-25T08:55:14.531Z,78.75
2018-02-25T08:57:43.517Z,80.09
2018-02-25T09:00:11.912Z,79.57
2018-02-25T09:02:40.775Z,79.51
2018-02-25T09:05:09.336Z,79.40
2018-02-25T09:07:38.376Z,77.48
2018-02-25T09:10:06.649Z,77.51
2018-02-25T09:12:35.006Z,78.21
2018-02-25T09:15:04.156Z,78.67
2018-02-25T09:17:32.834Z,78.56
2018-02-25T09:20:01.496Z,79.67
2018-02-25T09:22:29.787Z,78.00
2018-02-25T09:24:58.090Z,78.05
2018-02-25T09:27:26.727Z,77.86
2018-02-25T09:29:55.751Z,76.98
2018-02-25T09:32:24.372Z,77.62
2018-02-25T09:34:53.771Z,77.98
2018-02-25T09:37:22.151Z,78.44
2018-02-25T09:39:51.200Z,77.46
2018-02-25T09:42:20.126Z,78.11
2018-02-25T09:44:48.390Z,75.98
2018-02-25T09:47:17.089Z,76.06
2018-02-25T09:49:45.547Z,75.74
2018-02-25T09:52:14.333Z,76.07
2018-02-25T09:54:43.636Z,76.68
2018-02-25T09:57:11.910Z,76.18
2018-02-25T09:59:41.888Z,75.71
2018-02-25T10:02:10.543Z,75.76
2018-02-25T10:04:39.440Z,75.89
2018-02-25T10:07:07.839Z,75.71
2018-02-25T10:09:36.923Z,74.38
2018-02-25T10:12:05.211Z,75.71
2018-02-25T10:14:35.254Z,74.62
2018-02-25T10:17:04.577Z,74.84
2018-02-25T10:19:35.811Z,73.74
2018-02-25T10:22:04.205Z,74.78
2018-02-25T10:24:32.909Z,74.29
2018-02-25T10:27:01.529Z,74.91
2018-02-25T10:29:30.660Z,76.64
2018-02-25T10:31:59.242Z,77.64
2018-02-25T10:34:27.539Z,77.90
2018-02-25T10:36:55.920Z,77.63
2018-02-25T10:39:24.200Z,76.36
2018-02-25T10:41:52.474Z,76.48
2018-02-25T10:44:21.323Z,74.79
2018-02-25T10:46:49.602Z,75.88
2018-02-25T10:49:18.723Z,75.36
2018-02-25T10:51:47.107Z,74.54
2018-02-25T10:54:15.393Z,73.47
2018-02-25T10:56:43.755Z,73.98
2018-02-25T10:59:12.049Z,74.02
2018-02-25T11:01:40.532Z,74.92
2018-02-25T11:04:09.641Z,72.69
2018-02-25T11:06:38.826Z,72.39
2018-02-25T11:09:07.310Z,71.45
2018-02-25T11:11:36.184Z,72.51
2018-02-25T11:14:04.471Z,73.91
2018-02-25T11:16:32.968Z,73.64
2018-02-25T11:19:01.304Z,73.99
2018-02-25T11:21:30.342Z,73.16
2018-02-25T11:23:58.710Z,74.23
2018-02-25T11:26:27.295Z,73.32
2018-02-25T11:28:55.602Z,72.10
2018-02-25T11:31:23.983Z,71.11
2018-02-25T11:33:52.225Z,71.41
2018-02-25T11:36:21.548Z,72.06
2018-02-25T11:38:50.792Z,71.11
2018-02-25T11:41:19.860Z,71.07
2018-02-25T11:43:48.536Z,72.94
2018-02-25T11:46:17.409Z,72.84
2018-02-25T11:48:45.688Z,73.71
2018-02-25T11:51:13.980Z,75.42
2018-02-25T11:53:42.286Z,75.83
2018-02-25T11:56:10.768Z,75.54
2018-02-25T11:58:39.692Z,75.08
2018-02-25T12:01:08.004Z,75.29
2018-02-25T12:03:36.996Z,75.02
2018-02-25T12:06:05.428Z,75.50
2018-02-25T12:08:35.027Z,76.28
2018-02-25T12:11:03.366Z,74.22
2018-02-25T12:13:33.017Z,74.36
2018-02-25T12:16:01.890Z,72.78
2018-02-25T12:18:30.181Z,72.21
2018-02-25T12:20:58.748Z,73.80
2018-02-25T12:23:27.108Z,74.42
2018-02-25T12:25:56.560Z,73.84
2018-02-25T12:28:26.633Z,74.32
2018-02-25T12:30:55.860Z,75.45
2018-02-25T12:33:24.155Z,74.68
2018-02-25T12:35:53.093Z,73.71
2018-02-25T12:38:21.405Z,75.07
2018-02-25T12:40:50.120Z,75.97
2018-02-25T12:43:19.184Z,74.72
2018-02-25T12:45:47.760Z,74.57
2018-02-25T12:48:16.132Z,75.50
2018-02-25T12:50:44.437Z,75.37
2018-02-25T12:53:12.987Z,75.89
2018-02-25T12:55:41.257Z,75.35
2018-02-25T12:58:10.650Z,74.69
2018-02-25T13:00:39.408Z,75.03
2018-02-25T13:03:08.396Z,75.39
2018-02-25T13:05:37.380Z,73.32
2018-02-25T13:08:06.041Z,73.20
2018-02-25T13:10:34.616Z,72.57
2018-02-25T13:13:02.923Z,73.12
2018-02-25T13:15:32.125Z,73.36
2018-02-25T13:18:01.296Z,74.02
2018-02-25T13:20:30.855Z,74.19
2018-02-25T13:23:00.050Z,75.51
2018-02-25T13:25:29.094Z,74.71
2018-02-25T13:27:57.465Z,76.29
2018-02-25T13:30:26.928Z,75.04
2018-02-25T13:32:55.596Z,74.56
2018-02-25T13:35:23.953Z,75.23
2018-02-25T13:37:52.259Z,73.39
2018-02-25T13:40:20.980Z,74.20
2018-02-25T13:42:49.704Z,73.12
2018-02-25T13:45:19.030Z,73.63
2018-02-25T13:47:47.865Z,73.47
2018-02-25T13:50:16.921Z,74.35
2018-02-25T13:52:45.897Z,74.00
2018-02-25T13:55:14.172Z,74.72
2018-02-25T13:57:42.852Z,73.84
2018-02-25T14:00:12.068Z,74.63
2018-02-25T14:02:40.340Z,75.85
2018-02-25T14:05:08.653Z,74.52
2018-02-25T14:07:36.953Z,74.16
2018-02-25T14:10:06.501Z,75.36
2018-02-25T14:12:34.804Z,76.08
2018-02-25T14:15:03.085Z,75.86
2018-02-25T14:17:32.177Z,76.01
2018-02-25T14:20:00.488Z,76.41
2018-02-25T14:22:29.537Z,75.10
2018-02-25T14:24:57.846Z,74.87
2018-02-25T14:27:26.993Z,73.72
2018-02-25T14:29:55.283Z,74.25
2018-02-25T14:32:23.996Z,75.26
2018-02-25T14:34:52.293Z,74.93
2018-02-25T14:37:21.694Z,74.07
2018-02-25T14:39:50.252Z,73.82
2018-02-25T14:42:18.717Z,74.04
2018-02-25T14:44:46.981Z,73.41
2018-02-25T14:47:15.761Z,74.21
2018-02-25T14:49:44.052Z,74.65
2018-02-25T14:52:12.369Z,74.43
2018-02-25T14:54:41.035Z,72.60
2018-02-25T14:57:09.318Z,72.84
2018-02-25T14:59:37.609Z,73.09
2018-02-25T15:02:05.924Z,73.38
2018-02-25T15:04:34.202Z,72.09
2018-02-25T15:07:02.615Z,72.15
2018-02-25T15:09:30.938Z,72.40
2018-02-25T15:12:00.132Z,71.27
2018-02-25T15:14:28.440Z,71.33
2018-02-25T15:16:56.724Z,71.12
2018-02-25T15:19:25.011Z,69.83
2018-02-25T15:21:53.422Z,70.80
2018-02-25T15:24:21.688Z,69.91
2018-02-25T15:26:50.368Z,70.07
2018-02-25T15:29:18.964Z,69.86
2018-02-25T15:31:48.008Z,69.84
2018-02-25T15:34:17.159Z,70.16
2018-02-25T15:36:45.761Z,70.52
2018-02-25T15:39:14.259Z,69.09
2018-02-25T15:41:42.531Z,69.37
2018-02-25T15:44:10.850Z,69.19
2018-02-25T15:46:39.825Z,69.60
2018-02-25T15:49:09.297Z,69.48
2018-02-25T15:51:38.197Z,69.46
2018-02-25T15:54:07.104Z,69.21
2018-02-25T15:56:36.167Z,70.28
2018-02-25T15:59:04.632Z,69.74
2018-02-25T16:01:32.959Z,69.95
2018-02-25T16:04:02.321Z,69.72
2018-02-25T16:06:30.929Z,69.54
2018-02-25T16:08:59.262Z,68.81
2018-02-25T16:11:27.603Z,69.12
2018-02-25T16:13:55.848Z,69.79
2018-02-25T16:16:24.545Z,69.47
2018-02-25T16:18:53.002Z,70.13
2018-02-25T16:21:21.283Z,70.75
2018-02-25T16:23:49.609Z,70.69
2018-02-25T16:26:18.756Z,70.26
2018-02-25T16:28:48.250Z,70.63
2018-02-25T16:31:17.583Z,70.79
2018-02-25T16:33:46.090Z,71.30
2018-02-25T16:36:14.873Z,72.33
2018-02-25T16:38:43.176Z,71.33
2018-02-25T16:41:12.624Z,72.38
2018-02-25T16:43:41.219Z,71.01
2018-02-25T16:46:09.508Z,71.59
2018-02-25T16:48:37.925Z,71.37
2018-02-25T16:51:07.253Z,71.77
2018-02-25T16:53:35.549Z,72.03
2018-02-25T16:56:03.825Z,72.22
2018-02-25T16:58:32.191Z,71.89
2018-02-25T17:01:00.879Z,72.08
2018-02-25T17:03:30.102Z,72.49
2018-02-25T17:05:58.351Z,72.67
2018-02-25T17:08:26.661Z,72.11
2018-02-25T17:10:55.422Z,71.03
2018-02-25T17:13:23.713Z,71.02
2018-02-25T17:15:52.193Z,71.68
2018-02-25T17:18:20.679Z,71.80
2018-02-25T17:20:48.977Z,71.94
2018-02-25T17:23:17.350Z,71.29
2018-02-25T17:25:45.771Z,72.45
2018-02-25T17:28:14.332Z,71.61
2018-02-25T17:30:43.198Z,71.39
2018-02-25T17:33:11.507Z,71.12
2018-02-25T17:35:39.916Z,72.04
2018-02-25T17:38:08.982Z,71.61
2018-02-25T17:40:37.425Z,71.18
2018-02-25T17:43:05.764Z,71.19
2018-02-25T17:45:34.809Z,71.87
2018-02-25T17:48:03.092Z,72.12
2018-02-25T17:50:31.460Z,71.62
2018-02-25T17:52:59.931Z,71.96
2018-02-25T17:55:33.357Z,71.71
2018-02-25T17:57:56.627Z,72.62
2018-02-25T18:00:24.992Z,72.06
2018-02-25T18:02:53.279Z,72.07
2018-02-25T18:05:21.862Z,71.98
2018-02-25T18:07:50.262Z,72.96
2018-02-25T18:10:18.604Z,72.96
2018-02-25T18:12:46.891Z,72.73
2018-02-25T18:15:15.196Z,71.76
2018-02-25T18:17:43.522Z,73.22
2018-02-25T18:20:12.126Z,73.60
2018-02-25T18:22:40.409Z,73.89
2018-02-25T18:25:09.307Z,73.86
2018-02-25T18:27:37.877Z,74.98
2018-02-25T18:30:06.222Z,74.60
2018-02-25T18:32:35.269Z,75.29
2018-02-25T18:35:03.645Z,76.03
2018-02-25T18:37:31.921Z,76.27
2018-02-25T18:40:00.216Z,76.65
2018-02-25T18:42:28.532Z,76.25
2018-02-25T18:44:57.593Z,77.08
2018-02-25T18:47:25.884Z,76.84
2018-02-25T18:49:54.194Z,77.20
2018-02-25T18:52:23.348Z,77.40
2018-02-25T18:54:51.861Z,76.64
2018-02-25T18:57:20.961Z,74.93
2018-02-25T18:59:49.269Z,74.53
2018-02-25T19:02:17.569Z,73.44
2018-02-25T19:04:46.141Z,73.27
2018-02-25T19:07:14.453Z,72.33
2018-02-25T19:09:42.728Z,72.51
2018-02-25T19:12:11.285Z,71.79
2018-02-25T19:14:39.586Z,71.20
2018-02-25T19:17:07.896Z,72.21
2018-02-25T19:19:37.254Z,70.38
2018-02-25T19:22:05.565Z,70.74
2018-02-25T19:24:35.456Z,71.47
2018-02-25T19:27:03.776Z,70.30
2018-02-25T19:29:32.067Z,70.75
2018-02-25T19:32:01.078Z,70.61
2018-02-25T19:34:30.179Z,70.76
2018-02-25T19:37:03.984Z,70.21
2018-02-25T19:39:37.878Z,69.73
2018-02-25T19:42:12.310Z,69.58
2018-02-25T19:44:41.420Z,70.95
2018-02-25T19:47:09.702Z,70.71
2018-02-25T19:49:38.070Z,70.71
2018-02-25T19:52:06.368Z,70.62
2018-02-25T19:54:34.672Z,69.50
2018-02-25T19:57:03.126Z,69.54
2018-02-25T19:59:32.349Z,69.36
2018-02-25T20:02:00.696Z,69.10
2018-02-25T20:04:28.971Z,68.91
2018-02-25T20:06:57.854Z,69.15
2018-02-25T20:09:26.171Z,68.78
2018-02-25T20:11:54.461Z,69.08
2018-02-25T20:14:23.542Z,68.84
2018-02-25T20:16:51.813Z,69.21
2018-02-25T20:19:20.142Z,68.37
2018-02-25T20:21:48.448Z,68.43
2018-02-25T20:24:16.897Z,68.44
2018-02-25T20:26:46.664Z,67.13
2018-02-25T20:29:15.337Z,67.61
2018-02-25T20:31:43.632Z,67.05
2018-02-25T20:34:11.921Z,66.77
2018-02-25T20:36:40.257Z,66.63
2018-02-25T20:39:08.583Z,67.38
2018-02-25T20:41:36.861Z,66.37
2018-02-25T20:44:06.221Z,67.16
2018-02-25T20:46:34.504Z,66.58
2018-02-25T20:49:03.530Z,67.56
2018-02-25T20:51:31.813Z,67.19
2018-02-25T20:54:00.156Z,68.00
2018-02-25T20:56:28.536Z,68.81
2018-02-25T20:58:56.813Z,69.13
2018-02-25T21:01:25.146Z,73.18
2018-02-25T21:03:54.199Z,77.13
2018-02-25T21:06:22.488Z,78.18
2018-02-25T21:08:52.584Z,79.76
2018-02-25T21:11:20.861Z,80.68
2018-02-25T21:13:49.257Z,81.35
2018-02-25T21:16:17.604Z,82.05
2018-02-25T21:18:45.899Z,81.97
2018-02-25T21:21:14.210Z,82.02
2018-02-25T21:23:42.729Z,82.10
2018-02-25T21:26:11.053Z,82.24
2018-02-25T21:28:39.480Z,82.32
2018-02-25T21:31:09.209Z,82.00
2018-02-25T21:33:37.489Z,82.38
2018-02-25T21:36:05.792Z,82.73
2018-02-25T21:38:34.115Z,83.25
2018-02-25T21:41:04.504Z,83.61
2018-02-25T21:43:33.389Z,83.86
2018-02-25T21:46:01.660Z,83.67
2018-02-25T21:48:30.041Z,83.15
2018-02-25T21:50:59.128Z,82.55
2018-02-25T21:53:34.065Z,83.06
2018-02-25T21:56:07.920Z,81.89
2018-02-25T21:58:42.473Z,81.81
2018-02-25T22:01:16.280Z,82.08
2018-02-25T22:03:44.577Z,81.43
2018-02-25T22:06:12.864Z,82.20
2018-02-25T22:08:41.173Z,81.99
2018-02-25T22:11:09.492Z,81.99
2018-02-25T22:13:37.769Z,82.12
2018-02-25T22:16:07.860Z,82.27
2018-02-25T22:18:36.414Z,82.45
2018-02-25T22:21:04.680Z,82.24
2018-02-25T22:23:32.976Z,82.27
2018-02-25T22:26:01.404Z,82.39
2018-02-25T22:28:29.673Z,82.63
2018-02-25T22:30:58.814Z,82.57
2018-02-25T22:33:27.096Z,82.62
2018-02-25T22:35:55.392Z,82.13
2018-02-25T22:38:23.727Z,82.24
2018-02-25T22:40:52.024Z,82.84
2018-02-25T22:43:20.512Z,82.09
2018-02-25T22:45:48.920Z,82.19
2018-02-25T22:48:17.185Z,82.47
2018-02-25T22:50:45.931Z,82.73
2018-02-25T22:53:14.524Z,82.53
2018-02-25T22:55:43.056Z,82.54
2018-02-25T22:58:11.564Z,82.17
2018-02-25T23:00:40.916Z,81.49
2018-02-25T23:03:09.204Z,81.54
2018-02-25T23:05:37.481Z,81.67
2018-02-25T23:08:05.897Z,81.92
2018-02-25T23:10:34.956Z,82.19
2018-02-25T23:13:04.069Z,82.48
2018-02-25T23:15:33.344Z,82.51
2018-02-25T23:18:01.628Z,82.36
2018-02-25T23:20:30.439Z,82.10
2018-02-25T23:22:58.727Z,82.00
2018-02-25T23:25:27.881Z,81.76
2018-02-25T23:27:56.167Z,81.62
2018-02-25T23:30:24.456Z,81.73
2018-02-25T23:32:53.132Z,81.68
2018-02-25T23:35:21.381Z,81.50
2018-02-25T23:37:49.992Z,81.53
2018-02-25T23:40:18.300Z,81.83
2018-02-25T23:42:47.194Z,81.43
2018-02-25T23:45:15.550Z,81.53
2018-02-25T23:47:44.033Z,82.12
2018-02-25T23:50:12.425Z,82.03
2018-02-25T23:52:40.734Z,82.20
2018-02-25T23:55:09.103Z,82.25
2018-02-25T23:57:39.806Z,82.43
